sensor_id;sensor_type;location;lat;lon;timestamp;pressure;altitude;pressure_sealevel;temperature;humidity
11523;BME280;40093;43.224;27.910;2023-03-13T00:01:28;100894.28;;;6.31;80.71
11523;BME280;40093;43.224;27.910;2023-03-13T00:03:55;100894.84;;;6.37;80.16
11523;BME280;40093;43.224;27.910;2023-03-13T00:06:23;100900.56;;;6.44;80.08
11523;BME280;40093;43.224;27.910;2023-03-13T00:08:51;100900.38;;;6.16;80.11
11523;BME280;40093;43.224;27.910;2023-03-13T00:11:19;100893.66;;;6.14;80.73
11523;BME280;40093;43.224;27.910;2023-03-13T00:13:46;100899.59;;;6.16;81.07
11523;BME280;40093;43.224;27.910;2023-03-13T00:16:15;100896.94;;;6.07;81.18
11523;BME280;40093;43.224;27.910;2023-03-13T00:18:45;100900.72;;;6.15;81.33
11523;BME280;40093;43.224;27.910;2023-03-13T00:21:13;100895.84;;;6.20;80.80
11523;BME280;40093;43.224;27.910;2023-03-13T00:23:40;100902.91;;;6.21;80.57
11523;BME280;40093;43.224;27.910;2023-03-13T00:26:08;100900.19;;;6.33;80.84
11523;BME280;40093;43.224;27.910;2023-03-13T00:28:38;100894.44;;;6.02;81.91
11523;BME280;40093;43.224;27.910;2023-03-13T00:31:06;100900.94;;;5.89;82.52
11523;BME280;40093;43.224;27.910;2023-03-13T00:33:34;100894.34;;;5.70;83.65
11523;BME280;40093;43.224;27.910;2023-03-13T00:36:04;100897.56;;;5.92;84.31
11523;BME280;40093;43.224;27.910;2023-03-13T00:38:32;100913.59;;;6.14;84.07
11523;BME280;40093;43.224;27.910;2023-03-13T00:41:00;100907.22;;;6.22;83.59
11523;BME280;40093;43.224;27.910;2023-03-13T00:43:27;100910.69;;;6.31;83.34
11523;BME280;40093;43.224;27.910;2023-03-13T00:45:56;100910.59;;;6.40;84.25
11523;BME280;40093;43.224;27.910;2023-03-13T00:48:23;100908.31;;;6.42;84.87
11523;BME280;40093;43.224;27.910;2023-03-13T00:50:51;100900.44;;;6.40;85.44
11523;BME280;40093;43.224;27.910;2023-03-13T00:53:18;100909.09;;;6.42;85.80
11523;BME280;40093;43.224;27.910;2023-03-13T00:55:52;100912.31;;;6.44;85.92
11523;BME280;40093;43.224;27.910;2023-03-13T00:58:19;100911.38;;;6.40;86.19
11523;BME280;40093;43.224;27.910;2023-03-13T01:00:46;100903.88;;;6.37;86.26
11523;BME280;40093;43.224;27.910;2023-03-13T01:03:15;100907.06;;;6.39;86.26
11523;BME280;40093;43.224;27.910;2023-03-13T01:05:42;100910.22;;;6.29;86.43
11523;BME280;40093;43.224;27.910;2023-03-13T01:08:09;100913.41;;;6.31;86.56
11523;BME280;40093;43.224;27.910;2023-03-13T01:10:36;100913.53;;;6.35;86.70
11523;BME280;40093;43.224;27.910;2023-03-13T01:13:03;100920.13;;;6.34;86.75
11523;BME280;40093;43.224;27.910;2023-03-13T01:15:33;100919.00;;;6.35;86.88
11523;BME280;40093;43.224;27.910;2023-03-13T01:18:00;100919.34;;;6.33;87.21
11523;BME280;40093;43.224;27.910;2023-03-13T01:20:29;100923.56;;;6.31;87.17
11523;BME280;40093;43.224;27.910;2023-03-13T01:22:56;100926.63;;;6.29;87.32
11523;BME280;40093;43.224;27.910;2023-03-13T01:25:23;100926.16;;;6.27;87.94
11523;BME280;40093;43.224;27.910;2023-03-13T01:27:50;100921.84;;;6.26;88.02
11523;BME280;40093;43.224;27.910;2023-03-13T01:30:17;100935.81;;;6.25;87.95
11523;BME280;40093;43.224;27.910;2023-03-13T01:32:44;100933.31;;;6.20;88.29
11523;BME280;40093;43.224;27.910;2023-03-13T01:35:11;100932.97;;;6.21;88.60
11523;BME280;40093;43.224;27.910;2023-03-13T01:37:39;100926.34;;;6.22;89.07
11523;BME280;40093;43.224;27.910;2023-03-13T01:40:07;100932.50;;;6.19;89.17
11523;BME280;40093;43.224;27.910;2023-03-13T01:42:49;100932.84;;;6.18;89.48
11523;BME280;40093;43.224;27.910;2023-03-13T01:48:29;100929.72;;;6.07;89.85
11523;BME280;40093;43.224;27.910;2023-03-13T01:50:59;100944.31;;;6.11;89.77
11523;BME280;40093;43.224;27.910;2023-03-13T01:53:30;100953.19;;;6.08;89.46
11523;BME280;40093;43.224;27.910;2023-03-13T01:55:58;100953.41;;;6.03;89.86
11523;BME280;40093;43.224;27.910;2023-03-13T01:58:27;100953.41;;;6.03;90.19
11523;BME280;40093;43.224;27.910;2023-03-13T02:00:56;100961.72;;;6.07;89.69
11523;BME280;40093;43.224;27.910;2023-03-13T02:03:24;100966.09;;;5.99;89.26
11523;BME280;40093;43.224;27.910;2023-03-13T02:05:53;100970.94;;;6.02;89.79
11523;BME280;40093;43.224;27.910;2023-03-13T02:08:23;100975.44;;;5.98;89.74
11523;BME280;40093;43.224;27.910;2023-03-13T02:11:00;100982.50;;;5.99;89.58
11523;BME280;40093;43.224;27.910;2023-03-13T02:13:29;100981.56;;;5.95;89.64
11523;BME280;40093;43.224;27.910;2023-03-13T02:15:56;100976.97;;;5.87;90.18
11523;BME280;40093;43.224;27.910;2023-03-13T02:18:23;100974.59;;;5.86;90.07
11523;BME280;40093;43.224;27.910;2023-03-13T02:20:54;100987.22;;;5.90;90.24
11523;BME280;40093;43.224;27.910;2023-03-13T02:23:30;100986.22;;;5.95;89.69
11523;BME280;40093;43.224;27.910;2023-03-13T02:26:00;100994.41;;;5.95;89.12
11523;BME280;40093;43.224;27.910;2023-03-13T02:28:29;101003.56;;;5.99;88.76
11523;BME280;40093;43.224;27.910;2023-03-13T02:30:58;101007.09;;;5.99;88.33
11523;BME280;40093;43.224;27.910;2023-03-13T02:33:27;100996.38;;;5.94;88.66
11523;BME280;40093;43.224;27.910;2023-03-13T02:35:56;101012.28;;;5.92;89.24
11523;BME280;40093;43.224;27.910;2023-03-13T02:38:26;101010.09;;;5.86;88.51
11523;BME280;40093;43.224;27.910;2023-03-13T02:40:55;101013.16;;;5.84;89.00
11523;BME280;40093;43.224;27.910;2023-03-13T02:43:28;101018.16;;;5.82;89.18
11523;BME280;40093;43.224;27.910;2023-03-13T02:46:04;101022.16;;;5.76;89.18
11523;BME280;40093;43.224;27.910;2023-03-13T02:48:33;101036.03;;;5.71;89.71
11523;BME280;40093;43.224;27.910;2023-03-13T02:51:02;101030.41;;;5.68;90.34
11523;BME280;40093;43.224;27.910;2023-03-13T02:53:31;101032.47;;;5.71;90.52
11523;BME280;40093;43.224;27.910;2023-03-13T02:55:59;101042.13;;;5.68;91.27
11523;BME280;40093;43.224;27.910;2023-03-13T02:58:35;101043.47;;;5.62;92.26
11523;BME280;40093;43.224;27.910;2023-03-13T03:01:02;101039.31;;;5.56;92.28
11523;BME280;40093;43.224;27.910;2023-03-13T03:03:32;101038.38;;;5.52;92.67
11523;BME280;40093;43.224;27.910;2023-03-13T03:05:59;101043.38;;;5.50;93.62
11523;BME280;40093;43.224;27.910;2023-03-13T03:08:26;101048.63;;;5.55;93.83
11523;BME280;40093;43.224;27.910;2023-03-13T03:10:54;101037.69;;;5.55;94.02
11523;BME280;40093;43.224;27.910;2023-03-13T03:13:21;101055.69;;;5.56;94.49
11523;BME280;40093;43.224;27.910;2023-03-13T03:15:50;101060.53;;;5.51;95.35
11523;BME280;40093;43.224;27.910;2023-03-13T03:18:17;101064.72;;;5.48;96.13
11523;BME280;40093;43.224;27.910;2023-03-13T03:20:43;101067.63;;;5.43;96.84
11523;BME280;40093;43.224;27.910;2023-03-13T03:23:10;101054.44;;;5.45;97.75
11523;BME280;40093;43.224;27.910;2023-03-13T03:25:37;101060.09;;;5.40;98.14
11523;BME280;40093;43.224;27.910;2023-03-13T03:28:04;101061.41;;;5.34;98.57
11523;BME280;40093;43.224;27.910;2023-03-13T03:30:31;101060.28;;;5.35;98.92
11523;BME280;40093;43.224;27.910;2023-03-13T03:33:01;101061.75;;;5.24;98.49
11523;BME280;40093;43.224;27.910;2023-03-13T03:35:28;101066.59;;;5.19;99.15
11523;BME280;40093;43.224;27.910;2023-03-13T03:37:55;101065.16;;;5.21;99.19
11523;BME280;40093;43.224;27.910;2023-03-13T03:40:22;101073.16;;;5.26;99.21
11523;BME280;40093;43.224;27.910;2023-03-13T03:42:49;101070.91;;;5.28;99.05
11523;BME280;40093;43.224;27.910;2023-03-13T03:45:16;101076.84;;;5.30;98.21
11523;BME280;40093;43.224;27.910;2023-03-13T03:47:43;101070.25;;;5.31;97.86
11523;BME280;40093;43.224;27.910;2023-03-13T03:50:11;101066.72;;;5.31;97.35
11523;BME280;40093;43.224;27.910;2023-03-13T03:52:38;101074.56;;;5.32;97.58
11523;BME280;40093;43.224;27.910;2023-03-13T03:55:06;101042.41;;;5.09;96.80
11523;BME280;40093;43.224;27.910;2023-03-13T03:57:33;101078.13;;;5.24;96.97
11523;BME280;40093;43.224;27.910;2023-03-13T03:59:59;101080.22;;;5.27;96.59
11523;BME280;40093;43.224;27.910;2023-03-13T04:02:26;101048.19;;;5.07;96.29
11523;BME280;40093;43.224;27.910;2023-03-13T04:04:53;101077.47;;;5.36;96.48
11523;BME280;40093;43.224;27.910;2023-03-13T04:07:21;101090.13;;;5.40;95.50
11523;BME280;40093;43.224;27.910;2023-03-13T04:09:48;101093.47;;;5.46;95.75
11523;BME280;40093;43.224;27.910;2023-03-13T04:12:15;101092.34;;;5.47;95.21
11523;BME280;40093;43.224;27.910;2023-03-13T04:14:42;101096.81;;;5.51;95.47
11523;BME280;40093;43.224;27.910;2023-03-13T04:17:08;101101.63;;;5.54;94.67
11523;BME280;40093;43.224;27.910;2023-03-13T04:19:35;101095.03;;;5.55;94.04
11523;BME280;40093;43.224;27.910;2023-03-13T04:22:02;101102.91;;;5.57;93.85
11523;BME280;40093;43.224;27.910;2023-03-13T04:24:30;101112.03;;;5.61;93.50
11523;BME280;40093;43.224;27.910;2023-03-13T04:26:57;101113.31;;;5.63;93.27
11523;BME280;40093;43.224;27.910;2023-03-13T04:29:26;101123.09;;;5.64;93.08
11523;BME280;40093;43.224;27.910;2023-03-13T04:31:53;101129.50;;;5.68;92.11
11523;BME280;40093;43.224;27.910;2023-03-13T04:34:20;101124.19;;;5.72;91.89
11523;BME280;40093;43.224;27.910;2023-03-13T04:36:46;101131.41;;;5.76;91.75
11523;BME280;40093;43.224;27.910;2023-03-13T04:39:13;101130.75;;;5.79;91.00
11523;BME280;40093;43.224;27.910;2023-03-13T04:41:42;101134.59;;;5.78;90.83
11523;BME280;40093;43.224;27.910;2023-03-13T04:44:09;101133.19;;;5.81;90.89
11523;BME280;40093;43.224;27.910;2023-03-13T04:46:36;101135.78;;;5.69;90.97
11523;BME280;40093;43.224;27.910;2023-03-13T04:49:04;101141.41;;;6.01;91.46
11523;BME280;40093;43.224;27.910;2023-03-13T04:51:31;101137.41;;;6.48;89.86
11523;BME280;40093;43.224;27.910;2023-03-13T04:53:59;101145.25;;;6.91;87.42
11523;BME280;40093;43.224;27.910;2023-03-13T04:56:28;101148.28;;;7.30;85.46
11523;BME280;40093;43.224;27.910;2023-03-13T04:59:03;101151.75;;;7.63;83.21
11523;BME280;40093;43.224;27.910;2023-03-13T05:01:30;101161.84;;;7.83;81.08
11523;BME280;40093;43.224;27.910;2023-03-13T05:03:57;101164.22;;;7.84;79.51
11523;BME280;40093;43.224;27.910;2023-03-13T05:06:24;101162.03;;;7.90;79.30
11523;BME280;40093;43.224;27.910;2023-03-13T05:08:51;101177.81;;;8.17;78.55
11523;BME280;40093;43.224;27.910;2023-03-13T05:11:17;101180.22;;;8.54;77.49
11523;BME280;40093;43.224;27.910;2023-03-13T05:13:44;101174.09;;;8.73;75.54
11523;BME280;40093;43.224;27.910;2023-03-13T05:16:12;101181.09;;;8.98;74.63
11523;BME280;40093;43.224;27.910;2023-03-13T05:18:40;101180.38;;;9.13;73.80
11523;BME280;40093;43.224;27.910;2023-03-13T05:21:06;101176.81;;;9.40;72.41
11523;BME280;40093;43.224;27.910;2023-03-13T05:23:33;101175.13;;;9.51;70.34
11523;BME280;40093;43.224;27.910;2023-03-13T05:26:00;101181.06;;;9.53;69.32
11523;BME280;40093;43.224;27.910;2023-03-13T05:28:27;101186.50;;;9.49;69.12
11523;BME280;40093;43.224;27.910;2023-03-13T05:30:54;101185.81;;;9.68;68.86
11523;BME280;40093;43.224;27.910;2023-03-13T05:33:22;101185.53;;;9.73;67.89
11523;BME280;40093;43.224;27.910;2023-03-13T05:35:49;101191.66;;;9.81;67.80
11523;BME280;40093;43.224;27.910;2023-03-13T05:38:16;101185.91;;;9.71;68.42
11523;BME280;40093;43.224;27.910;2023-03-13T05:40:43;101199.47;;;9.37;68.80
11523;BME280;40093;43.224;27.910;2023-03-13T05:43:10;101194.47;;;9.54;69.25
11523;BME280;40093;43.224;27.910;2023-03-13T05:45:37;101197.06;;;9.93;68.27
11523;BME280;40093;43.224;27.910;2023-03-13T05:48:04;101204.56;;;10.08;67.08
11523;BME280;40093;43.224;27.910;2023-03-13T05:50:32;101206.16;;;10.25;65.79
11523;BME280;40093;43.224;27.910;2023-03-13T05:52:59;101209.13;;;9.89;66.05
11523;BME280;40093;43.224;27.910;2023-03-13T05:55:26;101209.50;;;9.87;66.52
11523;BME280;40093;43.224;27.910;2023-03-13T05:57:53;101208.00;;;9.90;66.93
11523;BME280;40093;43.224;27.910;2023-03-13T06:00:20;101213.34;;;10.14;65.51
11523;BME280;40093;43.224;27.910;2023-03-13T06:02:47;101216.53;;;10.31;65.53
11523;BME280;40093;43.224;27.910;2023-03-13T06:05:14;101220.16;;;10.35;64.81
11523;BME280;40093;43.224;27.910;2023-03-13T06:07:42;101219.88;;;10.40;64.99
11523;BME280;40093;43.224;27.910;2023-03-13T06:10:10;101218.69;;;10.72;64.21
11523;BME280;40093;43.224;27.910;2023-03-13T06:12:37;101220.59;;;11.06;63.27
11523;BME280;40093;43.224;27.910;2023-03-13T06:15:05;101221.19;;;11.15;62.39
11523;BME280;40093;43.224;27.910;2023-03-13T06:17:34;101224.22;;;10.91;62.68
11523;BME280;40093;43.224;27.910;2023-03-13T06:20:01;101227.47;;;11.16;62.96
11523;BME280;40093;43.224;27.910;2023-03-13T06:22:30;101233.22;;;11.26;62.24
11523;BME280;40093;43.224;27.910;2023-03-13T06:24:58;101230.38;;;11.42;62.03
11523;BME280;40093;43.224;27.910;2023-03-13T06:27:25;101229.06;;;11.55;61.38
11523;BME280;40093;43.224;27.910;2023-03-13T06:29:52;101229.00;;;11.32;61.32
11523;BME280;40093;43.224;27.910;2023-03-13T06:32:19;101226.97;;;11.67;60.59
11523;BME280;40093;43.224;27.910;2023-03-13T06:34:47;101233.97;;;11.84;60.01
11523;BME280;40093;43.224;27.910;2023-03-13T06:37:14;101241.38;;;11.80;60.02
11523;BME280;40093;43.224;27.910;2023-03-13T06:39:41;101232.03;;;11.65;60.87
11523;BME280;40093;43.224;27.910;2023-03-13T06:42:09;101232.44;;;11.64;60.50
11523;BME280;40093;43.224;27.910;2023-03-13T06:44:36;101241.19;;;11.50;61.29
11523;BME280;40093;43.224;27.910;2023-03-13T06:47:03;101223.16;;;11.75;62.39
11523;BME280;40093;43.224;27.910;2023-03-13T06:49:30;101222.84;;;11.99;60.37
11523;BME280;40093;43.224;27.910;2023-03-13T06:51:57;101231.97;;;12.03;60.09
11523;BME280;40093;43.224;27.910;2023-03-13T06:54:24;101224.41;;;12.23;60.03
11523;BME280;40093;43.224;27.910;2023-03-13T06:56:52;101235.56;;;12.55;58.00
11523;BME280;40093;43.224;27.910;2023-03-13T06:59:20;101233.69;;;12.59;57.63
11523;BME280;40093;43.224;27.910;2023-03-13T07:01:47;101236.72;;;12.51;56.99
11523;BME280;40093;43.224;27.910;2023-03-13T07:04:14;101230.28;;;12.69;56.95
11523;BME280;40093;43.224;27.910;2023-03-13T07:06:41;101243.88;;;13.07;55.97
11523;BME280;40093;43.224;27.910;2023-03-13T07:09:08;101227.44;;;12.92;55.55
11523;BME280;40093;43.224;27.910;2023-03-13T07:11:36;101228.13;;;12.85;53.96
11523;BME280;40093;43.224;27.910;2023-03-13T07:14:03;101228.19;;;12.89;54.38
11523;BME280;40093;43.224;27.910;2023-03-13T07:16:31;101227.75;;;13.13;53.87
11523;BME280;40093;43.224;27.910;2023-03-13T07:18:58;101237.47;;;13.33;53.07
11523;BME280;40093;43.224;27.910;2023-03-13T07:21:25;101238.81;;;12.87;53.89
11523;BME280;40093;43.224;27.910;2023-03-13T07:23:52;101236.72;;;12.77;54.93
11523;BME280;40093;43.224;27.910;2023-03-13T07:26:19;101243.50;;;12.83;53.42
11523;BME280;40093;43.224;27.910;2023-03-13T07:28:46;101247.38;;;13.04;53.01
11523;BME280;40093;43.224;27.910;2023-03-13T07:31:15;101239.59;;;12.84;53.40
11523;BME280;40093;43.224;27.910;2023-03-13T07:33:44;101241.25;;;13.18;53.31
11523;BME280;40093;43.224;27.910;2023-03-13T07:36:12;101244.53;;;13.60;51.41
11523;BME280;40093;43.224;27.910;2023-03-13T07:38:39;101241.59;;;13.79;49.05
11523;BME280;40093;43.224;27.910;2023-03-13T07:41:10;101248.22;;;13.71;48.87
11523;BME280;40093;43.224;27.910;2023-03-13T07:43:38;101244.03;;;13.51;49.08
11523;BME280;40093;43.224;27.910;2023-03-13T07:46:07;101237.09;;;13.67;48.34
11523;BME280;40093;43.224;27.910;2023-03-13T07:48:36;101243.56;;;13.45;48.79
11523;BME280;40093;43.224;27.910;2023-03-13T07:51:07;101245.97;;;13.83;48.49
11523;BME280;40093;43.224;27.910;2023-03-13T07:53:35;101230.66;;;14.33;36.88
11523;BME280;40093;43.224;27.910;2023-03-13T07:56:04;101224.53;;;14.60;34.40
11523;BME280;40093;43.224;27.910;2023-03-13T07:58:33;101237.97;;;14.62;32.61
11523;BME280;40093;43.224;27.910;2023-03-13T08:01:01;101226.59;;;14.74;33.02
11523;BME280;40093;43.224;27.910;2023-03-13T08:03:33;101238.97;;;14.93;32.54
11523;BME280;40093;43.224;27.910;2023-03-13T08:06:02;101238.53;;;14.85;31.36
11523;BME280;40093;43.224;27.910;2023-03-13T08:08:30;101236.50;;;14.75;29.00
11523;BME280;40093;43.224;27.910;2023-03-13T08:11:00;101242.34;;;14.63;28.53
11523;BME280;40093;43.224;27.910;2023-03-13T08:13:28;101231.25;;;14.63;28.96
11523;BME280;40093;43.224;27.910;2023-03-13T08:16:03;101241.22;;;14.71;29.39
11523;BME280;40093;43.224;27.910;2023-03-13T08:18:29;101252.09;;;14.43;27.81
11523;BME280;40093;43.224;27.910;2023-03-13T08:21:01;101237.34;;;14.32;29.14
11523;BME280;40093;43.224;27.910;2023-03-13T08:23:29;101241.75;;;14.36;28.42
11523;BME280;40093;43.224;27.910;2023-03-13T08:26:00;101229.94;;;14.43;28.54
11523;BME280;40093;43.224;27.910;2023-03-13T08:28:27;101233.22;;;14.59;28.90
11523;BME280;40093;43.224;27.910;2023-03-13T08:30:54;101217.41;;;14.59;28.74
11523;BME280;40093;43.224;27.910;2023-03-13T08:33:21;101230.78;;;14.50;28.64
11523;BME280;40093;43.224;27.910;2023-03-13T08:35:48;101237.03;;;14.40;29.11
11523;BME280;40093;43.224;27.910;2023-03-13T08:38:15;101228.63;;;14.30;29.32
11523;BME280;40093;43.224;27.910;2023-03-13T08:40:44;101226.50;;;14.13;29.01
11523;BME280;40093;43.224;27.910;2023-03-13T08:43:11;101225.84;;;14.23;28.94
11523;BME280;40093;43.224;27.910;2023-03-13T08:45:38;101237.56;;;14.13;28.41
11523;BME280;40093;43.224;27.910;2023-03-13T08:48:05;101230.38;;;14.05;29.02
11523;BME280;40093;43.224;27.910;2023-03-13T08:50:32;101249.25;;;13.96;29.02
11523;BME280;40093;43.224;27.910;2023-03-13T08:52:58;101233.69;;;13.81;30.06
11523;BME280;40093;43.224;27.910;2023-03-13T08:55:25;101227.00;;;13.82;29.78
11523;BME280;40093;43.224;27.910;2023-03-13T08:57:54;101252.22;;;13.77;30.29
11523;BME280;40093;43.224;27.910;2023-03-13T09:00:21;101258.81;;;13.65;29.84
11523;BME280;40093;43.224;27.910;2023-03-13T09:02:48;101257.25;;;13.35;30.32
11523;BME280;40093;43.224;27.910;2023-03-13T09:05:15;101246.13;;;13.28;30.24
11523;BME280;40093;43.224;27.910;2023-03-13T09:07:43;101258.63;;;13.18;31.00
11523;BME280;40093;43.224;27.910;2023-03-13T09:10:10;101246.72;;;13.14;31.18
11523;BME280;40093;43.224;27.910;2023-03-13T09:12:37;101243.59;;;13.16;31.57
11523;BME280;40093;43.224;27.910;2023-03-13T09:15:07;101239.31;;;13.22;31.49
11523;BME280;40093;43.224;27.910;2023-03-13T09:17:34;101230.38;;;13.32;33.68
11523;BME280;40093;43.224;27.910;2023-03-13T09:20:01;101230.06;;;13.37;32.39
11523;BME280;40093;43.224;27.910;2023-03-13T09:22:29;101238.56;;;13.25;31.16
11523;BME280;40093;43.224;27.910;2023-03-13T09:24:55;101229.66;;;13.38;34.74
11523;BME280;40093;43.224;27.910;2023-03-13T09:27:22;101227.84;;;13.53;34.57
11523;BME280;40093;43.224;27.910;2023-03-13T09:29:49;101226.63;;;13.47;34.75
11523;BME280;40093;43.224;27.910;2023-03-13T09:32:18;101223.34;;;13.38;35.67
11523;BME280;40093;43.224;27.910;2023-03-13T09:34:45;101225.22;;;13.01;36.20
11523;BME280;40093;43.224;27.910;2023-03-13T09:37:12;101254.03;;;13.00;37.25
11523;BME280;40093;43.224;27.910;2023-03-13T09:39:39;101240.91;;;12.93;38.61
11523;BME280;40093;43.224;27.910;2023-03-13T09:42:11;101251.38;;;13.07;37.66
11523;BME280;40093;43.224;27.910;2023-03-13T09:44:43;101250.09;;;13.01;38.96
11523;BME280;40093;43.224;27.910;2023-03-13T09:47:19;101249.13;;;12.90;40.63
11523;BME280;40093;43.224;27.910;2023-03-13T09:49:49;101263.06;;;12.97;40.14
11523;BME280;40093;43.224;27.910;2023-03-13T09:52:21;101247.13;;;12.87;41.35
11523;BME280;40093;43.224;27.910;2023-03-13T09:54:51;101262.56;;;12.91;43.02
11523;BME280;40093;43.224;27.910;2023-03-13T09:57:26;101253.34;;;12.80;41.54
11523;BME280;40093;43.224;27.910;2023-03-13T09:59:59;101264.31;;;12.77;43.11
11523;BME280;40093;43.224;27.910;2023-03-13T10:02:32;101241.78;;;12.49;43.04
11523;BME280;40093;43.224;27.910;2023-03-13T10:05:05;101251.25;;;12.48;41.98
11523;BME280;40093;43.224;27.910;2023-03-13T10:07:33;101237.44;;;12.48;43.89
11523;BME280;40093;43.224;27.910;2023-03-13T10:10:00;101237.84;;;12.50;44.46
11523;BME280;40093;43.224;27.910;2023-03-13T10:12:35;101236.94;;;12.17;45.49
11523;BME280;40093;43.224;27.910;2023-03-13T10:15:18;101232.44;;;12.09;45.90
11523;BME280;40093;43.224;27.910;2023-03-13T10:17:48;101237.25;;;11.89;46.71
11523;BME280;40093;43.224;27.910;2023-03-13T10:20:21;101254.34;;;11.98;44.34
11523;BME280;40093;43.224;27.910;2023-03-13T10:22:50;101240.38;;;12.10;44.76
11523;BME280;40093;43.224;27.910;2023-03-13T10:25:27;101230.13;;;12.33;46.54
11523;BME280;40093;43.224;27.910;2023-03-13T10:27:57;101235.91;;;12.25;46.05
11523;BME280;40093;43.224;27.910;2023-03-13T10:30:26;101216.66;;;12.06;45.97
11523;BME280;40093;43.224;27.910;2023-03-13T10:32:59;101235.34;;;12.16;44.79
11523;BME280;40093;43.224;27.910;2023-03-13T10:35:32;101220.59;;;12.08;46.02
11523;BME280;40093;43.224;27.910;2023-03-13T10:38:07;101232.94;;;11.92;45.57
11523;BME280;40093;43.224;27.910;2023-03-13T10:40:35;101242.56;;;12.01;44.89
11523;BME280;40093;43.224;27.910;2023-03-13T10:43:03;101238.13;;;11.74;45.49
11523;BME280;40093;43.224;27.910;2023-03-13T10:45:32;101215.34;;;11.77;47.35
11523;BME280;40093;43.224;27.910;2023-03-13T10:48:03;101218.03;;;11.96;47.23
11523;BME280;40093;43.224;27.910;2023-03-13T10:50:41;101213.56;;;12.11;46.24
11523;BME280;40093;43.224;27.910;2023-03-13T10:53:20;101216.19;;;11.81;47.70
11523;BME280;40093;43.224;27.910;2023-03-13T10:55:47;101201.19;;;11.79;46.59
11523;BME280;40093;43.224;27.910;2023-03-13T10:58:18;101209.34;;;11.94;45.98
11523;BME280;40093;43.224;27.910;2023-03-13T11:00:46;101212.84;;;11.91;47.10
11523;BME280;40093;43.224;27.910;2023-03-13T11:03:17;101220.66;;;12.12;47.44
11523;BME280;40093;43.224;27.910;2023-03-13T11:05:54;101216.94;;;12.01;47.23
11523;BME280;40093;43.224;27.910;2023-03-13T11:08:24;101191.13;;;11.90;46.82
11523;BME280;40093;43.224;27.910;2023-03-13T11:10:56;101205.47;;;11.99;46.80
11523;BME280;40093;43.224;27.910;2023-03-13T11:13:29;101187.22;;;11.91;46.50
11523;BME280;40093;43.224;27.910;2023-03-13T11:15:57;101190.97;;;11.79;48.18
11523;BME280;40093;43.224;27.910;2023-03-13T11:18:32;101207.28;;;11.69;48.79
11523;BME280;40093;43.224;27.910;2023-03-13T11:21:00;101182.19;;;11.74;49.45
11523;BME280;40093;43.224;27.910;2023-03-13T11:23:32;101180.59;;;11.73;48.04
11523;BME280;40093;43.224;27.910;2023-03-13T11:26:10;101169.38;;;11.62;49.06
11523;BME280;40093;43.224;27.910;2023-03-13T11:28:48;101174.59;;;11.67;49.58
11523;BME280;40093;43.224;27.910;2023-03-13T11:31:21;101177.22;;;11.60;48.32
11523;BME280;40093;43.224;27.910;2023-03-13T11:33:58;101160.91;;;11.74;48.02
11523;BME280;40093;43.224;27.910;2023-03-13T11:36:33;101163.22;;;11.50;47.00
11523;BME280;40093;43.224;27.910;2023-03-13T11:39:29;101155.34;;;11.71;47.85
11523;BME280;40093;43.224;27.910;2023-03-13T11:42:02;101149.16;;;11.77;47.36
11523;BME280;40093;43.224;27.910;2023-03-13T11:44:45;101146.94;;;11.86;48.61
11523;BME280;40093;43.224;27.910;2023-03-13T11:47:43;101165.94;;;11.91;49.28
11523;BME280;40093;43.224;27.910;2023-03-13T11:50:25;101149.41;;;11.91;48.05
11523;BME280;40093;43.224;27.910;2023-03-13T11:53:03;101144.19;;;11.86;48.41
11523;BME280;40093;43.224;27.910;2023-03-13T11:55:45;101151.16;;;11.58;49.27
11523;BME280;40093;43.224;27.910;2023-03-13T12:01:16;101140.22;;;11.84;50.34
11523;BME280;40093;43.224;27.910;2023-03-13T12:03:53;101142.44;;;12.01;49.89
11523;BME280;40093;43.224;27.910;2023-03-13T12:06:28;101141.97;;;11.95;50.12
11523;BME280;40093;43.224;27.910;2023-03-13T12:09:01;101151.00;;;11.92;50.04
11523;BME280;40093;43.224;27.910;2023-03-13T12:11:32;101148.56;;;11.87;49.73
11523;BME280;40093;43.224;27.910;2023-03-13T12:14:03;101143.88;;;11.91;49.30
11523;BME280;40093;43.224;27.910;2023-03-13T12:16:39;101146.41;;;11.77;49.54
11523;BME280;40093;43.224;27.910;2023-03-13T12:19:10;101146.72;;;11.72;49.26
11523;BME280;40093;43.224;27.910;2023-03-13T12:21:44;101129.53;;;11.60;50.12
11523;BME280;40093;43.224;27.910;2023-03-13T12:24:19;101125.19;;;11.59;50.67
11523;BME280;40093;43.224;27.910;2023-03-13T12:26:50;101129.13;;;11.58;50.31
11523;BME280;40093;43.224;27.910;2023-03-13T12:29:37;101141.72;;;11.59;49.02
11523;BME280;40093;43.224;27.910;2023-03-13T12:32:12;101132.84;;;11.46;50.64
11523;BME280;40093;43.224;27.910;2023-03-13T12:34:50;101135.88;;;11.41;51.40
11523;BME280;40093;43.224;27.910;2023-03-13T12:37:25;101150.53;;;11.45;50.94
11523;BME280;40093;43.224;27.910;2023-03-13T12:39:58;101130.13;;;11.27;51.05
11523;BME280;40093;43.224;27.910;2023-03-13T12:42:38;101134.69;;;11.20;50.83
11523;BME280;40093;43.224;27.910;2023-03-13T12:45:15;101154.06;;;11.04;52.05
11523;BME280;40093;43.224;27.910;2023-03-13T12:51:00;101118.03;;;11.13;54.52
11523;BME280;40093;43.224;27.910;2023-03-13T12:53:56;101116.34;;;11.08;53.83
11523;BME280;40093;43.224;27.910;2023-03-13T12:56:46;101134.34;;;11.02;54.23
11523;BME280;40093;43.224;27.910;2023-03-13T12:59:21;101140.66;;;11.03;54.83
11523;BME280;40093;43.224;27.910;2023-03-13T13:01:53;101132.09;;;11.08;55.21
11523;BME280;40093;43.224;27.910;2023-03-13T13:04:22;101123.59;;;11.16;55.69
11523;BME280;40093;43.224;27.910;2023-03-13T13:06:53;101134.88;;;11.30;54.81